Mabie, West Virginia
Current Conditions -  °F | °C
As of 3:51 PM on Sunday 23 Nov 2014 (Local Time) from KEKN Reporting Station
Few Clouds Few Clouds  
Wind Chill: 56°   Ceiling: Unl
Heat Index: 56°   Visibility: 10mi
Dew Point: 42°   Wind: 15mph
Humidity: 60%   Direction: 160°SSE
Pressure: 29.93"   Gusts: 25mph
Location:  38.88°N, 79.98°W
Report Text: KEKN 232051Z AUTO 16013G22KT 10SM FEW120 13/06 A2993 RMK AO2 SLP147 T01330056 56032 TSNO
Loading
Personal Weather Stations






























Interactive Weather Map New forecast layout! Learn more

10-Day Weather Forecast

Advertisements
Track Severe Weather on mobile